Juneau, AK (99801)

8:02 PM AKDT on June 01, 2015 (GMT -0800)
Brother Hood Bridge / Safeway | | Change Station
CLOSE
Current Station
Personal Weather Station
Location: Juneau, AK
Elevation: 23 ft
Nearby Weather Stations

Elev 23 ft 58.37 °N, 134.60 °W | Updated 3 minutes ago

Scattered Clouds
Scattered Clouds
68.9 °F
Feels Like 68.9 °F
N
1.6
Wind Variable Wind from West

Today
High -- | Low -- °F
--% Chance of Precip.
Yesterday
High -- | Low -- °F
Precip. -- in
4:02 AM 9:50 PM
Full, 100% visible
Pressure 29.77 in
Visibility 10.0 miles
Clouds Few 6500 ft
Scattered Clouds 8000 ft
Scattered Clouds 24000 ft
Dew Point 49 °F
Humidity 49%
Rainfall 0.00 in
Snow Depth Not available.
UV 0 out of 12
Pollen Not available.
Air Quality Not available.
Flu Activity Sporadic
METAR PAJN 020353Z 25007KT 10SM FEW065 SCT080 SCT240 18/09 A2976 RMK AO2 SLP079 T01830094

More Conditions Fewer Conditions

Pressure 29.77 in
Visibility 10.0 miles
Clouds Few 6500 ft
Scattered Clouds 8000 ft
Scattered Clouds 24000 ft
Dew Point 49 °F
Humidity 49%
Rainfall 0.00 in
Snow Depth Not available.
UV 0 out of 12
Pollen Not available.
Air Quality Not available.
Flu Activity Sporadic
METAR PAJN 020353Z 25007KT 10SM FEW065 SCT080 SCT240 18/09 A2976 RMK AO2 SLP079 T01830094

More Conditions Fewer Conditions

10-Day Weather Forecast

Almanac

Astronomy

Jun. 01, 2015 Rise Set
Actual Time
Civil Twilight
Nautical Twilight
Astronomical Twilight
Moon
Length of Visible Light
Length of Day
Tomorrow will be .
, % of the Moon is Illuminated

Today's Extremes

State Highs State Lows

Community

WunderPhotos

Upload Photos

1,825,891 photos uploaded!

WunderBlogs® & News

Nearby

Air Quality

  Air Quality AQ Index Pollutant
Not available.

Snow Depth

Station Depth Elevation

Earthquake Activity

City Distance Mag. Time & Date
Minimum magnitude displayed is 2.5.

Coastal Water Temperatures

Place Temperature

Stations

Nearby Weather Stations

Station Location Temp. Windchill Dew Point Humidity Wind Precip. Elev Updated Type